ARG4373 SABE-SAME
Flight info
| Callsign | ARG4373 |
|---|---|
| Flight time | 1h 57m |
| Altitude | 36000 |
| Route | PAL9 NEPIS DCT NIN UL405 PAPIR PAPIR1U |
| Aircraft | B738/M-SDE2E3FGHIRWXY/LB1 |
Departure
| Time | 2026-04-26 21:47 |
|---|---|
| Airport | Aeroparque Jorge Newbery (SABE) |
Arrival
| Time | 2026-04-26 23:44 |
|---|---|
| Airport | Governor Francisco Gabrielli International Airport (SAME) |
| Time | Latitude | Longitude | Altitude | Speed | Heading |
|---|---|---|---|---|---|
| 2026-04-26 21:23 | -34.55780 | -58.41289 | 24 ft | 0 kts | 36° |
| 2026-04-26 21:35 | -34.55789 | -58.41297 | 25 ft | 2 kts | 37° |
| 2026-04-26 21:35 | -34.55799 | -58.41306 | 26 ft | 1 kts | 37° |
| 2026-04-26 21:35 | -34.55810 | -58.41315 | 26 ft | 2 kts | 4° |
| 2026-04-26 21:36 | -34.55821 | -58.41310 | 26 ft | 1 kts | 308° |
| 2026-04-26 21:36 | -34.55826 | -58.41302 | 26 ft | 1 kts | 300° |
| 2026-04-26 21:36 | -34.55835 | -58.41285 | 26 ft | 1 kts | 298° |
| 2026-04-26 21:36 | -34.55841 | -58.41273 | 26 ft | 2 kts | 299° |
| 2026-04-26 21:37 | -34.55847 | -58.41260 | 26 ft | 1 kts | 299° |
| 2026-04-26 21:37 | -34.55854 | -58.41247 | 26 ft | 1 kts | 300° |
| 2026-04-26 21:37 | -34.55858 | -58.41239 | 26 ft | 0 kts | 304° |
| 2026-04-26 21:38 | -34.55857 | -58.41240 | 30 ft | 1 kts | 302° |
| 2026-04-26 21:39 | -34.55855 | -58.41257 | 26 ft | 4 kts | 269° |
| 2026-04-26 21:39 | -34.55875 | -58.41289 | 26 ft | 6 kts | 214° |
| 2026-04-26 21:39 | -34.55926 | -58.41297 | 28 ft | 9 kts | 150° |
| 2026-04-26 21:39 | -34.55974 | -58.41222 | 26 ft | 14 kts | 127° |
| 2026-04-26 21:40 | -34.56027 | -58.41136 | 28 ft | 15 kts | 127° |
| 2026-04-26 21:40 | -34.56097 | -58.41024 | 27 ft | 19 kts | 127° |
| 2026-04-26 21:40 | -34.56164 | -58.40903 | 25 ft | 16 kts | 120° |
| 2026-04-26 21:40 | -34.56181 | -58.40815 | 26 ft | 12 kts | 117° |
| 2026-04-26 21:41 | -34.56231 | -58.40724 | 26 ft | 15 kts | 124° |
| 2026-04-26 21:41 | -34.56278 | -58.40640 | 25 ft | 8 kts | 124° |
| 2026-04-26 21:41 | -34.56323 | -58.40569 | 26 ft | 12 kts | 137° |
| 2026-04-26 21:41 | -34.56357 | -58.40533 | 27 ft | 8 kts | 139° |
| 2026-04-26 21:42 | -34.56393 | -58.40494 | 26 ft | 9 kts | 137° |
| 2026-04-26 21:42 | -34.56415 | -58.40469 | 24 ft | 0 kts | 138° |
| 2026-04-26 21:44 | -34.56416 | -58.40468 | 24 ft | 1 kts | 138° |
| 2026-04-26 21:44 | -34.56436 | -58.40446 | 26 ft | 7 kts | 137° |
| 2026-04-26 21:44 | -34.56483 | -58.40395 | 27 ft | 11 kts | 138° |
| 2026-04-26 21:45 | -34.56518 | -58.40388 | 26 ft | 4 kts | 198° |
| 2026-04-26 21:45 | -34.56549 | -58.40417 | 26 ft | 7 kts | 251° |
| 2026-04-26 21:45 | -34.56537 | -58.40480 | 26 ft | 10 kts | 302° |
| 2026-04-26 21:45 | -34.56494 | -58.40562 | 28 ft | 13 kts | 292° |
| 2026-04-26 21:46 | -34.56443 | -58.40657 | 27 ft | 15 kts | 297° |
| 2026-04-26 21:46 | -34.56376 | -58.40769 | 25 ft | 25 kts | 305° |
| 2026-04-26 21:46 | -34.56103 | -58.41262 | 28 ft | 114 kts | 304° |
| 2026-04-26 21:46 | -34.55514 | -58.42309 | 117 ft | 179 kts | 304° |
| 2026-04-26 21:47 | -34.54577 | -58.43453 | 828 ft | 212 kts | 318° |
| 2026-04-26 21:47 | -34.53357 | -58.44591 | 1550 ft | 227 kts | 309° |
| 2026-04-26 21:47 | -34.52085 | -58.45880 | 2317 ft | 253 kts | 320° |
| 2026-04-26 21:47 | -34.50266 | -58.46442 | 3082 ft | 294 kts | 357° |
| 2026-04-26 21:48 | -34.48211 | -58.45656 | 3878 ft | 332 kts | 30° |
| 2026-04-26 21:48 | -34.46527 | -58.43613 | 4742 ft | 356 kts | 54° |
| 2026-04-26 21:48 | -34.45057 | -58.41155 | 5521 ft | 355 kts | 49° |
| 2026-04-26 21:48 | -34.43119 | -58.39549 | 6207 ft | 329 kts | 8° |
| 2026-04-26 21:49 | -34.40997 | -58.39709 | 6964 ft | 292 kts | 328° |
| 2026-04-26 21:49 | -34.39313 | -58.40880 | 7747 ft | 271 kts | 319° |
| 2026-04-26 21:49 | -34.37780 | -58.42161 | 8517 ft | 270 kts | 313° |
| 2026-04-26 21:49 | -34.36365 | -58.43706 | 9358 ft | 279 kts | 306° |
| 2026-04-26 21:50 | -34.35268 | -58.45643 | 10148 ft | 281 kts | 285° |
| 2026-04-26 21:50 | -34.34904 | -58.47151 | 10677 ft | 283 kts | 276° |
| 2026-04-26 21:50 | -34.34818 | -58.50345 | 11713 ft | 287 kts | 258° |
| 2026-04-26 21:50 | -34.35291 | -58.52700 | 12518 ft | 289 kts | 252° |
| 2026-04-26 21:51 | -34.35882 | -58.55035 | 13328 ft | 291 kts | 251° |
| 2026-04-26 21:51 | -34.36458 | -58.57354 | 14081 ft | 292 kts | 253° |
| 2026-04-26 21:51 | -34.37000 | -58.59756 | 14822 ft | 291 kts | 255° |
| 2026-04-26 21:51 | -34.37461 | -58.62140 | 15573 ft | 290 kts | 256° |
| 2026-04-26 21:52 | -34.37896 | -58.64486 | 16323 ft | 288 kts | 257° |
| 2026-04-26 21:52 | -34.38334 | -58.66819 | 17097 ft | 280 kts | 257° |
| 2026-04-26 21:52 | -34.38763 | -58.69043 | 17870 ft | 260 kts | 257° |
| 2026-04-26 21:52 | -34.39038 | -58.70444 | 18383 ft | 249 kts | 257° |
| 2026-04-26 21:53 | -34.39569 | -58.73118 | 19315 ft | 245 kts | 257° |
| 2026-04-26 21:53 | -34.39970 | -58.75112 | 20024 ft | 242 kts | 257° |
| 2026-04-26 21:53 | -34.40239 | -58.76444 | 20522 ft | 240 kts | 257° |
| 2026-04-26 21:53 | -34.40629 | -58.78364 | 21262 ft | 236 kts | 257° |
| 2026-04-26 21:54 | -34.41018 | -58.80280 | 22026 ft | 232 kts | 256° |
| 2026-04-26 21:54 | -34.41400 | -58.82156 | 22809 ft | 226 kts | 256° |
| 2026-04-26 21:54 | -34.41772 | -58.83980 | 23597 ft | 220 kts | 256° |
| 2026-04-26 21:54 | -34.42134 | -58.85752 | 24271 ft | 213 kts | 256° |
| 2026-04-26 21:55 | -34.42483 | -58.87457 | 24959 ft | 204 kts | 256° |
| 2026-04-26 21:55 | -34.42816 | -58.89087 | 25663 ft | 194 kts | 256° |
| 2026-04-26 21:55 | -34.42985 | -58.90679 | 26153 ft | 195 kts | 269° |
| 2026-04-26 21:55 | -34.42799 | -58.92396 | 26130 ft | 215 kts | 272° |
| 2026-04-26 21:56 | -34.42556 | -58.94252 | 26117 ft | 231 kts | 271° |
| 2026-04-26 21:56 | -34.42378 | -58.96223 | 26296 ft | 238 kts | 269° |
| 2026-04-26 21:56 | -34.42276 | -58.98254 | 26570 ft | 244 kts | 268° |
| 2026-04-26 21:56 | -34.42187 | -59.00333 | 26830 ft | 251 kts | 268° |
| 2026-04-26 21:57 | -34.42087 | -59.02469 | 27092 ft | 258 kts | 269° |
| 2026-04-26 21:57 | -34.41972 | -59.04658 | 27359 ft | 264 kts | 269° |
| 2026-04-26 21:57 | -34.41844 | -59.06900 | 27621 ft | 270 kts | 269° |
| 2026-04-26 21:57 | -34.41705 | -59.09181 | 27977 ft | 272 kts | 269° |
| 2026-04-26 21:58 | -34.41557 | -59.11478 | 28373 ft | 274 kts | 270° |
| 2026-04-26 21:58 | -34.41404 | -59.13786 | 28783 ft | 276 kts | 270° |
| 2026-04-26 21:58 | -34.41246 | -59.16107 | 29188 ft | 277 kts | 270° |
| 2026-04-26 21:58 | -34.41084 | -59.18436 | 29610 ft | 278 kts | 270° |
| 2026-04-26 21:59 | -34.40920 | -59.20771 | 30022 ft | 278 kts | 270° |
| 2026-04-26 21:59 | -34.40755 | -59.23118 | 30308 ft | 281 kts | 270° |
| 2026-04-26 21:59 | -34.40586 | -59.25481 | 30602 ft | 283 kts | 270° |
| 2026-04-26 21:59 | -34.40418 | -59.27834 | 30886 ft | 285 kts | 270° |
| 2026-04-26 22:00 | -34.40245 | -59.30232 | 31183 ft | 286 kts | 271° |
| 2026-04-26 22:00 | -34.40071 | -59.32638 | 31480 ft | 288 kts | 271° |
| 2026-04-26 22:00 | -34.39895 | -59.35055 | 31783 ft | 289 kts | 271° |
| 2026-04-26 22:00 | -34.39718 | -59.37479 | 32081 ft | 290 kts | 271° |
| 2026-04-26 22:01 | -34.39539 | -59.39916 | 32385 ft | 290 kts | 271° |
| 2026-04-26 22:01 | -34.39360 | -59.42352 | 32695 ft | 291 kts | 271° |
| 2026-04-26 22:01 | -34.39180 | -59.44792 | 33003 ft | 291 kts | 271° |
| 2026-04-26 22:01 | -34.38999 | -59.47230 | 33323 ft | 291 kts | 272° |
| 2026-04-26 22:02 | -34.38819 | -59.49661 | 33640 ft | 290 kts | 272° |
| 2026-04-26 22:02 | -34.38638 | -59.52092 | 33956 ft | 289 kts | 272° |
| 2026-04-26 22:02 | -34.38457 | -59.54512 | 34235 ft | 288 kts | 272° |
| 2026-04-26 22:02 | -34.38277 | -59.56921 | 34506 ft | 287 kts | 272° |
| 2026-04-26 22:03 | -34.38097 | -59.59314 | 34778 ft | 285 kts | 272° |
| 2026-04-26 22:03 | -34.37917 | -59.61697 | 35060 ft | 283 kts | 272° |
| 2026-04-26 22:03 | -34.37739 | -59.64056 | 35337 ft | 281 kts | 272° |
| 2026-04-26 22:03 | -34.37562 | -59.66397 | 35624 ft | 278 kts | 272° |
| 2026-04-26 22:04 | -34.37386 | -59.68732 | 35690 ft | 283 kts | 272° |
| 2026-04-26 22:04 | -34.37204 | -59.71177 | 35325 ft | 300 kts | 272° |
| 2026-04-26 22:04 | -34.37011 | -59.73749 | 35125 ft | 312 kts | 272° |
| 2026-04-26 22:04 | -34.36811 | -59.76367 | 35323 ft | 312 kts | 272° |
| 2026-04-26 22:05 | -34.36609 | -59.78984 | 35518 ft | 313 kts | 272° |
| 2026-04-26 22:05 | -34.36406 | -59.81607 | 35737 ft | 313 kts | 272° |
| 2026-04-26 22:05 | -34.36206 | -59.84195 | 35945 ft | 312 kts | 272° |
| 2026-04-26 22:05 | -34.36002 | -59.86817 | 36057 ft | 315 kts | 272° |
| 2026-04-26 22:06 | -34.35588 | -59.92167 | 36062 ft | 323 kts | 272° |
| 2026-04-26 22:06 | -34.35161 | -59.97654 | 36070 ft | 332 kts | 272° |
| 2026-04-26 22:07 | -34.34720 | -60.03278 | 36087 ft | 340 kts | 272° |
| 2026-04-26 22:07 | -34.34266 | -60.09035 | 36088 ft | 347 kts | 272° |
| 2026-04-26 22:08 | -34.33798 | -60.14921 | 36097 ft | 355 kts | 272° |
| 2026-04-26 22:08 | -34.33318 | -60.20926 | 36100 ft | 362 kts | 272° |
| 2026-04-26 22:09 | -34.32827 | -60.27040 | 36100 ft | 369 kts | 272° |
| 2026-04-26 22:09 | -34.32323 | -60.33260 | 36102 ft | 374 kts | 272° |
| 2026-04-26 22:10 | -34.31809 | -60.39561 | 36102 ft | 378 kts | 272° |
| 2026-04-26 22:10 | -34.31288 | -60.45914 | 36106 ft | 381 kts | 272° |
| 2026-04-26 22:11 | -34.30760 | -60.52307 | 36109 ft | 382 kts | 272° |
| 2026-04-26 22:11 | -34.30231 | -60.58669 | 36109 ft | 383 kts | 272° |
| 2026-04-26 22:12 | -34.29695 | -60.65080 | 36114 ft | 383 kts | 272° |
| 2026-04-26 22:12 | -34.29156 | -60.71488 | 36123 ft | 383 kts | 272° |
| 2026-04-26 22:13 | -34.28614 | -60.77893 | 36126 ft | 383 kts | 272° |
| 2026-04-26 22:13 | -34.28069 | -60.84290 | 36129 ft | 382 kts | 272° |
| 2026-04-26 22:14 | -34.27522 | -60.90679 | 36136 ft | 382 kts | 273° |
| 2026-04-26 22:14 | -34.26972 | -60.97061 | 36141 ft | 381 kts | 273° |
| 2026-04-26 22:15 | -34.26419 | -61.03435 | 36139 ft | 381 kts | 273° |
| 2026-04-26 22:15 | -34.25863 | -61.09811 | 36148 ft | 381 kts | 273° |
| 2026-04-26 22:16 | -34.25304 | -61.16181 | 36147 ft | 381 kts | 273° |
| 2026-04-26 22:16 | -34.24741 | -61.22553 | 36152 ft | 381 kts | 273° |
| 2026-04-26 22:17 | -34.24178 | -61.28891 | 36156 ft | 381 kts | 273° |
| 2026-04-26 22:17 | -34.23609 | -61.35263 | 36154 ft | 382 kts | 273° |
| 2026-04-26 22:18 | -34.23035 | -61.41640 | 36162 ft | 382 kts | 273° |
| 2026-04-26 22:18 | -34.22458 | -61.48024 | 36163 ft | 382 kts | 273° |
| 2026-04-26 22:19 | -34.21878 | -61.54404 | 36171 ft | 382 kts | 273° |
| 2026-04-26 22:19 | -34.21292 | -61.60799 | 36167 ft | 383 kts | 273° |
| 2026-04-26 22:20 | -34.20804 | -61.66109 | 36170 ft | 383 kts | 273° |
| 2026-04-26 22:20 | -34.20113 | -61.73581 | 36173 ft | 383 kts | 273° |
| 2026-04-26 22:21 | -34.19517 | -61.79983 | 36177 ft | 383 kts | 273° |
| 2026-04-26 22:21 | -34.18917 | -61.86387 | 36177 ft | 384 kts | 273° |
| 2026-04-26 22:22 | -34.18314 | -61.92795 | 36186 ft | 384 kts | 273° |
| 2026-04-26 22:22 | -34.17707 | -61.99204 | 36184 ft | 384 kts | 273° |
| 2026-04-26 22:23 | -34.17097 | -62.05614 | 36191 ft | 384 kts | 273° |
| 2026-04-26 22:23 | -34.16483 | -62.12021 | 36189 ft | 384 kts | 273° |
| 2026-04-26 22:24 | -34.15866 | -62.18433 | 36198 ft | 385 kts | 273° |
| 2026-04-26 22:24 | -34.15245 | -62.24847 | 36198 ft | 385 kts | 273° |
| 2026-04-26 22:25 | -34.14624 | -62.31223 | 36202 ft | 385 kts | 274° |
| 2026-04-26 22:25 | -34.13995 | -62.37650 | 36200 ft | 385 kts | 274° |
| 2026-04-26 22:26 | -34.13363 | -62.44073 | 36207 ft | 385 kts | 274° |
| 2026-04-26 22:26 | -34.12727 | -62.50496 | 36205 ft | 385 kts | 274° |
| 2026-04-26 22:27 | -34.12088 | -62.56917 | 36210 ft | 385 kts | 274° |
| 2026-04-26 22:27 | -34.11445 | -62.63342 | 36210 ft | 385 kts | 274° |
| 2026-04-26 22:28 | -34.10799 | -62.69766 | 36222 ft | 386 kts | 274° |
| 2026-04-26 22:28 | -34.10150 | -62.76192 | 36223 ft | 386 kts | 274° |
| 2026-04-26 22:29 | -34.09497 | -62.82615 | 36220 ft | 386 kts | 274° |
| 2026-04-26 22:29 | -34.08840 | -62.89045 | 36228 ft | 386 kts | 274° |
| 2026-04-26 22:30 | -34.08179 | -62.95475 | 36225 ft | 386 kts | 274° |
| 2026-04-26 22:30 | -34.07520 | -63.01862 | 36227 ft | 386 kts | 274° |
| 2026-04-26 22:31 | -34.06852 | -63.08294 | 36231 ft | 386 kts | 274° |
| 2026-04-26 22:31 | -34.06182 | -63.14723 | 36234 ft | 386 kts | 274° |
| 2026-04-26 22:32 | -34.05507 | -63.21153 | 36239 ft | 386 kts | 274° |
| 2026-04-26 22:32 | -34.04829 | -63.27585 | 36240 ft | 387 kts | 274° |
| 2026-04-26 22:33 | -34.03807 | -63.37229 | 36244 ft | 387 kts | 274° |
| 2026-04-26 22:34 | -34.03124 | -63.43621 | 36248 ft | 387 kts | 274° |
| 2026-04-26 22:34 | -34.02434 | -63.50054 | 36249 ft | 387 kts | 274° |
| 2026-04-26 22:35 | -34.01740 | -63.56490 | 36251 ft | 387 kts | 274° |
| 2026-04-26 22:35 | -34.01042 | -63.62931 | 36256 ft | 387 kts | 274° |
| 2026-04-26 22:36 | -34.00342 | -63.69365 | 36254 ft | 387 kts | 274° |
| 2026-04-26 22:36 | -33.99637 | -63.75803 | 36261 ft | 388 kts | 274° |
| 2026-04-26 22:37 | -33.98929 | -63.82245 | 36261 ft | 388 kts | 274° |
| 2026-04-26 22:37 | -33.98218 | -63.88679 | 36258 ft | 388 kts | 275° |
| 2026-04-26 22:38 | -33.97502 | -63.95127 | 36268 ft | 388 kts | 275° |
| 2026-04-26 22:38 | -33.96783 | -64.01569 | 36275 ft | 388 kts | 275° |
| 2026-04-26 22:39 | -33.96183 | -64.06920 | 36273 ft | 388 kts | 275° |
| 2026-04-26 22:39 | -33.95458 | -64.13365 | 36270 ft | 388 kts | 275° |
| 2026-04-26 22:40 | -33.94728 | -64.19815 | 36277 ft | 388 kts | 275° |
| 2026-04-26 22:40 | -33.93878 | -64.27294 | 36277 ft | 388 kts | 275° |
| 2026-04-26 22:41 | -33.93142 | -64.33736 | 36278 ft | 388 kts | 275° |
| 2026-04-26 22:41 | -33.92524 | -64.39126 | 36279 ft | 388 kts | 275° |
| 2026-04-26 22:42 | -33.91788 | -64.45523 | 36283 ft | 388 kts | 275° |
| 2026-04-26 22:42 | -33.91010 | -64.51948 | 36283 ft | 388 kts | 277° |
| 2026-04-26 22:43 | -33.89870 | -64.58314 | 36287 ft | 390 kts | 280° |
| 2026-04-26 22:43 | -33.88411 | -64.64618 | 36289 ft | 391 kts | 281° |
| 2026-04-26 22:44 | -33.86989 | -64.70923 | 36296 ft | 390 kts | 280° |
| 2026-04-26 22:44 | -33.85667 | -64.77253 | 36293 ft | 390 kts | 280° |
| 2026-04-26 22:45 | -33.84355 | -64.83574 | 36298 ft | 389 kts | 280° |
| 2026-04-26 22:45 | -33.83051 | -64.89844 | 36295 ft | 389 kts | 280° |
| 2026-04-26 22:46 | -33.81744 | -64.96113 | 36302 ft | 389 kts | 280° |
| 2026-04-26 22:46 | -33.80426 | -65.02418 | 36299 ft | 389 kts | 280° |
| 2026-04-26 22:47 | -33.79106 | -65.08715 | 36303 ft | 388 kts | 280° |
| 2026-04-26 22:47 | -33.77784 | -65.15002 | 36300 ft | 388 kts | 280° |
| 2026-04-26 22:48 | -33.76458 | -65.21292 | 36300 ft | 388 kts | 280° |
| 2026-04-26 22:48 | -33.75131 | -65.27575 | 36300 ft | 388 kts | 280° |
| 2026-04-26 22:49 | -33.73810 | -65.33811 | 36301 ft | 387 kts | 280° |
| 2026-04-26 22:49 | -33.72466 | -65.40075 | 36297 ft | 387 kts | 281° |
| 2026-04-26 22:50 | -33.71010 | -65.46303 | 36298 ft | 387 kts | 282° |
| 2026-04-26 22:50 | -33.69524 | -65.52522 | 36299 ft | 387 kts | 282° |
| 2026-04-26 22:51 | -33.68047 | -65.58741 | 36307 ft | 387 kts | 281° |
| 2026-04-26 22:51 | -33.66576 | -65.64954 | 36313 ft | 387 kts | 281° |
| 2026-04-26 22:52 | -33.65116 | -65.71115 | 36318 ft | 386 kts | 281° |
| 2026-04-26 22:52 | -33.63645 | -65.77315 | 36326 ft | 386 kts | 281° |
| 2026-04-26 22:53 | -33.62171 | -65.83507 | 36327 ft | 386 kts | 281° |
| 2026-04-26 22:53 | -33.60696 | -65.89688 | 36322 ft | 385 kts | 281° |
| 2026-04-26 22:54 | -33.59219 | -65.95862 | 36331 ft | 385 kts | 282° |
| 2026-04-26 22:54 | -33.57740 | -66.02031 | 36331 ft | 385 kts | 281° |
| 2026-04-26 22:55 | -33.56259 | -66.08195 | 36327 ft | 384 kts | 281° |
| 2026-04-26 22:55 | -33.55149 | -66.12806 | 36325 ft | 384 kts | 282° |
| 2026-04-26 23:11 | -33.55052 | -66.13208 | 36328 ft | 384 kts | 281° |
| 2026-04-26 23:12 | -33.53561 | -66.19391 | 35868 ft | 388 kts | 281° |
| 2026-04-26 23:12 | -33.52813 | -66.22481 | 35478 ft | 384 kts | 281° |
| 2026-04-26 23:12 | -33.52072 | -66.25532 | 35095 ft | 378 kts | 281° |
| 2026-04-26 23:12 | -33.51344 | -66.28534 | 34706 ft | 372 kts | 281° |
| 2026-04-26 23:13 | -33.50625 | -66.31498 | 34336 ft | 369 kts | 281° |
| 2026-04-26 23:13 | -33.49913 | -66.34434 | 33912 ft | 366 kts | 281° |
| 2026-04-26 23:13 | -33.49203 | -66.37354 | 33491 ft | 364 kts | 281° |
| 2026-04-26 23:13 | -33.48438 | -66.40243 | 33056 ft | 363 kts | 283° |
| 2026-04-26 23:14 | -33.47590 | -66.43097 | 32630 ft | 364 kts | 285° |
| 2026-04-26 23:14 | -33.46657 | -66.45911 | 32225 ft | 364 kts | 286° |
| 2026-04-26 23:14 | -33.45717 | -66.48684 | 31827 ft | 363 kts | 286° |
| 2026-04-26 23:14 | -33.44786 | -66.51491 | 31434 ft | 362 kts | 285° |
| 2026-04-26 23:15 | -33.43880 | -66.54305 | 31043 ft | 362 kts | 285° |
| 2026-04-26 23:15 | -33.42985 | -66.57117 | 30667 ft | 362 kts | 285° |
| 2026-04-26 23:15 | -33.42094 | -66.59940 | 30272 ft | 362 kts | 284° |
| 2026-04-26 23:15 | -33.41293 | -66.62805 | 29830 ft | 365 kts | 282° |
| 2026-04-26 23:16 | -33.40567 | -66.65745 | 29383 ft | 371 kts | 281° |
| 2026-04-26 23:16 | -33.39870 | -66.68726 | 28946 ft | 371 kts | 281° |
| 2026-04-26 23:16 | -33.39181 | -66.71681 | 28514 ft | 367 kts | 281° |
| 2026-04-26 23:16 | -33.38487 | -66.74616 | 28089 ft | 365 kts | 281° |
| 2026-04-26 23:17 | -33.37789 | -66.77519 | 27671 ft | 362 kts | 281° |
| 2026-04-26 23:17 | -33.37087 | -66.80406 | 27253 ft | 361 kts | 281° |
| 2026-04-26 23:17 | -33.36392 | -66.83243 | 26851 ft | 359 kts | 281° |
| 2026-04-26 23:17 | -33.35687 | -66.86108 | 26451 ft | 358 kts | 281° |
| 2026-04-26 23:18 | -33.34985 | -66.88957 | 26081 ft | 357 kts | 281° |
| 2026-04-26 23:18 | -33.34282 | -66.91801 | 25718 ft | 356 kts | 281° |
| 2026-04-26 23:18 | -33.33579 | -66.94644 | 25348 ft | 356 kts | 281° |
| 2026-04-26 23:18 | -33.32876 | -66.97483 | 24994 ft | 356 kts | 281° |
| 2026-04-26 23:19 | -33.32172 | -67.00324 | 24645 ft | 356 kts | 281° |
| 2026-04-26 23:19 | -33.31467 | -67.03166 | 24295 ft | 357 kts | 281° |
| 2026-04-26 23:19 | -33.30761 | -67.06011 | 23949 ft | 357 kts | 281° |
| 2026-04-26 23:19 | -33.30048 | -67.08884 | 23576 ft | 365 kts | 281° |
| 2026-04-26 23:20 | -33.29321 | -67.11814 | 23175 ft | 370 kts | 281° |
| 2026-04-26 23:20 | -33.28586 | -67.14762 | 22775 ft | 369 kts | 282° |
| 2026-04-26 23:20 | -33.27854 | -67.17684 | 22365 ft | 365 kts | 282° |
| 2026-04-26 23:20 | -33.27130 | -67.20578 | 21995 ft | 363 kts | 282° |
| 2026-04-26 23:21 | -33.26409 | -67.23456 | 21628 ft | 360 kts | 281° |
| 2026-04-26 23:21 | -33.25692 | -67.26317 | 21274 ft | 359 kts | 282° |
| 2026-04-26 23:21 | -33.24937 | -67.29158 | 20920 ft | 358 kts | 283° |
| 2026-04-26 23:21 | -33.24137 | -67.31979 | 20572 ft | 358 kts | 284° |
| 2026-04-26 23:22 | -33.23319 | -67.34790 | 20229 ft | 358 kts | 284° |
| 2026-04-26 23:22 | -33.22500 | -67.37597 | 19888 ft | 358 kts | 284° |
| 2026-04-26 23:22 | -33.21686 | -67.40404 | 19550 ft | 358 kts | 284° |
| 2026-04-26 23:22 | -33.20887 | -67.43179 | 19224 ft | 358 kts | 283° |
| 2026-04-26 23:23 | -33.20070 | -67.46027 | 18890 ft | 358 kts | 283° |
| 2026-04-26 23:23 | -33.19277 | -67.48800 | 18566 ft | 357 kts | 283° |
| 2026-04-26 23:23 | -33.18474 | -67.51608 | 18200 ft | 357 kts | 283° |
| 2026-04-26 23:23 | -33.17671 | -67.54413 | 17823 ft | 356 kts | 284° |
| 2026-04-26 23:24 | -33.16870 | -67.57210 | 17461 ft | 355 kts | 284° |
| 2026-04-26 23:24 | -33.16073 | -67.59991 | 17100 ft | 353 kts | 284° |
| 2026-04-26 23:24 | -33.15278 | -67.62760 | 16744 ft | 351 kts | 284° |
| 2026-04-26 23:24 | -33.14488 | -67.65512 | 16389 ft | 349 kts | 284° |
| 2026-04-26 23:25 | -33.13702 | -67.68248 | 16037 ft | 347 kts | 285° |
| 2026-04-26 23:25 | -33.12918 | -67.70971 | 15692 ft | 346 kts | 285° |
| 2026-04-26 23:25 | -33.12149 | -67.73640 | 15359 ft | 344 kts | 285° |
| 2026-04-26 23:25 | -33.11238 | -67.76279 | 14998 ft | 348 kts | 297° |
| 2026-04-26 23:26 | -33.09701 | -67.78531 | 14686 ft | 351 kts | 310° |
| 2026-04-26 23:26 | -33.07987 | -67.80611 | 14354 ft | 350 kts | 309° |
| 2026-04-26 23:26 | -33.06596 | -67.82941 | 13998 ft | 343 kts | 292° |
| 2026-04-26 23:26 | -33.05686 | -67.85547 | 13659 ft | 339 kts | 289° |
| 2026-04-26 23:27 | -33.04732 | -67.88123 | 13284 ft | 341 kts | 296° |
| 2026-04-26 23:27 | -33.03445 | -67.90510 | 12931 ft | 343 kts | 303° |
| 2026-04-26 23:27 | -33.02026 | -67.92793 | 12577 ft | 343 kts | 304° |
| 2026-04-26 23:27 | -33.01078 | -67.94306 | 12345 ft | 343 kts | 304° |
| 2026-04-26 23:28 | -32.99217 | -67.97397 | 11880 ft | 343 kts | 302° |
| 2026-04-26 23:28 | -32.97875 | -67.99744 | 11536 ft | 343 kts | 302° |
| 2026-04-26 23:28 | -32.96548 | -68.02108 | 11217 ft | 343 kts | 302° |
| 2026-04-26 23:28 | -32.95223 | -68.04468 | 10895 ft | 343 kts | 302° |
| 2026-04-26 23:29 | -32.93896 | -68.06823 | 10587 ft | 342 kts | 302° |
| 2026-04-26 23:29 | -32.92568 | -68.09166 | 10275 ft | 338 kts | 303° |
| 2026-04-26 23:29 | -32.91269 | -68.11450 | 9936 ft | 328 kts | 303° |
| 2026-04-26 23:29 | -32.90436 | -68.12914 | 9854 ft | 316 kts | 303° |
| 2026-04-26 23:30 | -32.88840 | -68.15716 | 9634 ft | 298 kts | 303° |
| 2026-04-26 23:30 | -32.87698 | -68.17724 | 9395 ft | 288 kts | 303° |
| 2026-04-26 23:30 | -32.86610 | -68.19639 | 9196 ft | 278 kts | 303° |
| 2026-04-26 23:30 | -32.85545 | -68.21511 | 9010 ft | 268 kts | 303° |
| 2026-04-26 23:31 | -32.84512 | -68.23324 | 8889 ft | 262 kts | 303° |
| 2026-04-26 23:31 | -32.83502 | -68.25095 | 8763 ft | 256 kts | 302° |
| 2026-04-26 23:31 | -32.82509 | -68.26838 | 8651 ft | 254 kts | 303° |
| 2026-04-26 23:31 | -32.81843 | -68.28008 | 8578 ft | 252 kts | 303° |
| 2026-04-26 23:32 | -32.80869 | -68.29715 | 8485 ft | 245 kts | 303° |
| 2026-04-26 23:32 | -32.79923 | -68.31374 | 8406 ft | 242 kts | 303° |
| 2026-04-26 23:32 | -32.78665 | -68.33582 | 8464 ft | 247 kts | 303° |
| 2026-04-26 23:32 | -32.77697 | -68.35279 | 8241 ft | 246 kts | 303° |
| 2026-04-26 23:33 | -32.77068 | -68.36381 | 8129 ft | 240 kts | 303° |
| 2026-04-26 23:33 | -32.76151 | -68.37985 | 7961 ft | 229 kts | 303° |
| 2026-04-26 23:33 | -32.75510 | -68.39107 | 7849 ft | 226 kts | 303° |
| 2026-04-26 23:33 | -32.74643 | -68.40623 | 7743 ft | 218 kts | 303° |
| 2026-04-26 23:34 | -32.73798 | -68.42102 | 7628 ft | 215 kts | 303° |
| 2026-04-26 23:34 | -32.72950 | -68.43586 | 7529 ft | 218 kts | 303° |
| 2026-04-26 23:34 | -32.72091 | -68.45089 | 7423 ft | 221 kts | 303° |
| 2026-04-26 23:34 | -32.71226 | -68.46600 | 7313 ft | 221 kts | 303° |
| 2026-04-26 23:35 | -32.70365 | -68.48105 | 7200 ft | 220 kts | 303° |
| 2026-04-26 23:35 | -32.69502 | -68.49611 | 7091 ft | 220 kts | 303° |
| 2026-04-26 23:35 | -32.68645 | -68.51107 | 6983 ft | 219 kts | 303° |
| 2026-04-26 23:35 | -32.67791 | -68.52597 | 6888 ft | 218 kts | 303° |
| 2026-04-26 23:36 | -32.66941 | -68.54080 | 6801 ft | 216 kts | 303° |
| 2026-04-26 23:36 | -32.66096 | -68.55553 | 6737 ft | 215 kts | 303° |
| 2026-04-26 23:36 | -32.65260 | -68.57011 | 6678 ft | 212 kts | 303° |
| 2026-04-26 23:36 | -32.64430 | -68.58458 | 6594 ft | 212 kts | 303° |
| 2026-04-26 23:37 | -32.63598 | -68.59907 | 6519 ft | 214 kts | 303° |
| 2026-04-26 23:37 | -32.62751 | -68.61380 | 6437 ft | 219 kts | 303° |
| 2026-04-26 23:37 | -32.61890 | -68.62879 | 6324 ft | 220 kts | 303° |
| 2026-04-26 23:37 | -32.61036 | -68.64381 | 6286 ft | 218 kts | 300° |
| 2026-04-26 23:38 | -32.60567 | -68.66047 | 6274 ft | 214 kts | 266° |
| 2026-04-26 23:38 | -32.61041 | -68.67643 | 6311 ft | 208 kts | 240° |
| 2026-04-26 23:38 | -32.61723 | -68.69170 | 6298 ft | 210 kts | 245° |
| 2026-04-26 23:38 | -32.62296 | -68.70750 | 6277 ft | 205 kts | 247° |
| 2026-04-26 23:39 | -32.62833 | -68.72292 | 6047 ft | 201 kts | 247° |
| 2026-04-26 23:39 | -32.63362 | -68.73798 | 5756 ft | 193 kts | 246° |
| 2026-04-26 23:39 | -32.63875 | -68.75244 | 5463 ft | 187 kts | 246° |
| 2026-04-26 23:39 | -32.64373 | -68.76640 | 5196 ft | 182 kts | 246° |
| 2026-04-26 23:40 | -32.64866 | -68.78005 | 4899 ft | 177 kts | 242° |
| 2026-04-26 23:40 | -32.65601 | -68.79070 | 4746 ft | 160 kts | 201° |
| 2026-04-26 23:40 | -32.66685 | -68.79134 | 4778 ft | 162 kts | 171° |
| 2026-04-26 23:40 | -32.67786 | -68.79055 | 4802 ft | 159 kts | 178° |
| 2026-04-26 23:41 | -32.68903 | -68.79067 | 4772 ft | 161 kts | 179° |
| 2026-04-26 23:41 | -32.70035 | -68.79086 | 4644 ft | 165 kts | 179° |
| 2026-04-26 23:41 | -32.71188 | -68.79105 | 4527 ft | 164 kts | 179° |
| 2026-04-26 23:41 | -32.72332 | -68.79122 | 4298 ft | 165 kts | 179° |
| 2026-04-26 23:42 | -32.73487 | -68.79150 | 3903 ft | 167 kts | 179° |
| 2026-04-26 23:42 | -32.75756 | -68.79195 | 3331 ft | 151 kts | 179° |
| 2026-04-26 23:42 | -32.76822 | -68.79200 | 3280 ft | 156 kts | 178° |
| 2026-04-26 23:43 | -32.77922 | -68.79212 | 3254 ft | 160 kts | 179° |
| 2026-04-26 23:43 | -32.79054 | -68.79230 | 3034 ft | 163 kts | 179° |
| 2026-04-26 23:43 | -32.80159 | -68.79246 | 2779 ft | 158 kts | 179° |
| 2026-04-26 23:43 | -32.81235 | -68.79252 | 2556 ft | 153 kts | 180° |
| 2026-04-26 23:44 | -32.82299 | -68.79260 | 2405 ft | 151 kts | 180° |
| 2026-04-26 23:44 | -32.83275 | -68.79292 | 2398 ft | 113 kts | 181° |
| 2026-04-26 23:44 | -32.83767 | -68.79305 | 2399 ft | 45 kts | 180° |
| 2026-04-26 23:44 | -32.83969 | -68.79309 | 2398 ft | 26 kts | 181° |
| 2026-04-26 23:45 | -32.84062 | -68.79361 | 2396 ft | 11 kts | 274° |
| 2026-04-26 23:45 | -32.84053 | -68.79424 | 2396 ft | 7 kts | 275° |
| 2026-04-26 23:45 | -32.84049 | -68.79480 | 2395 ft | 7 kts | 278° |
| 2026-04-26 23:45 | -32.84026 | -68.79524 | 2393 ft | 7 kts | 339° |
| 2026-04-26 23:46 | -32.83975 | -68.79531 | 2393 ft | 8 kts | 360° |
| 2026-04-26 23:46 | -32.83910 | -68.79529 | 2393 ft | 10 kts | 1° |
| 2026-04-26 23:46 | -32.83831 | -68.79527 | 2393 ft | 12 kts | 1° |
| 2026-04-26 23:46 | -32.83738 | -68.79526 | 2394 ft | 14 kts | 0° |
| 2026-04-26 23:47 | -32.83634 | -68.79525 | 2389 ft | 16 kts | 0° |
| 2026-04-26 23:47 | -32.83520 | -68.79521 | 2389 ft | 17 kts | 1° |
| 2026-04-26 23:47 | -32.83397 | -68.79519 | 2387 ft | 18 kts | 0° |
| 2026-04-26 23:47 | -32.83277 | -68.79517 | 2389 ft | 12 kts | 1° |
| 2026-04-26 23:48 | -32.83188 | -68.79515 | 2389 ft | 14 kts | 1° |
| 2026-04-26 23:48 | -32.83098 | -68.79512 | 2385 ft | 15 kts | 1° |
| 2026-04-26 23:50 | -32.83090 | -68.79512 | 2382 ft | 15 kts | 1° |
| 2026-04-26 23:50 | -32.83001 | -68.79549 | 2380 ft | 14 kts | 320° |
| 2026-04-26 23:50 | -32.82934 | -68.79637 | 2381 ft | 15 kts | 280° |
| 2026-04-26 23:51 | -32.82903 | -68.79707 | 2375 ft | 9 kts | 349° |
| 2026-04-26 23:51 | -32.82834 | -68.79708 | 2378 ft | 11 kts | 1° |
| 2026-04-26 23:51 | -32.82754 | -68.79707 | 2376 ft | 12 kts | 0° |
| 2026-04-26 23:51 | -32.82702 | -68.79706 | 2375 ft | 2 kts | 0° |
| 2026-04-26 23:52 | -32.82689 | -68.79717 | 2375 ft | 2 kts | 292° |
| 2026-04-26 23:52 | -32.82686 | -68.79746 | 2375 ft | 5 kts | 273° |
| 2026-04-26 23:52 | -32.82686 | -68.79761 | 2374 ft | 1 kts | 271° |
| 2026-04-26 23:52 | -32.82686 | -68.79772 | 2374 ft | 1 kts | 271° |
| 2026-04-26 23:53 | -32.82686 | -68.79775 | 2374 ft | 0 kts | 271° |